Map

Track Data

SID SEASON NUMBER BASIN SUBBASIN NAME ISO_TIME NATURE LAT LON WMO_WIND WMO_PRES WMO_AGENCY TRACK_TYPE DIST2LAND LANDFALL IFLAG USA_AGENCY USA_ATCF_ID USA_LAT USA_LON USA_RECORD USA_STATUS USA_WIND USA_PRES USA_SSHS USA_R34_NE USA_R34_SE USA_R34_SW USA_R34_NW USA_R50_NE USA_R50_SE USA_R50_SW USA_R50_NW USA_R64_NE USA_R64_SE USA_R64_SW USA_R64_NW USA_POCI USA_ROCI USA_RMW USA_EYE TOKYO_LAT TOKYO_LON TOKYO_GRADE TOKYO_WIND TOKYO_PRES TOKYO_R50_DIR TOKYO_R50_LONG TOKYO_R50_SHORT TOKYO_R30_DIR TOKYO_R30_LONG TOKYO_R30_SHORT TOKYO_LAND CMA_LAT CMA_LON CMA_CAT CMA_WIND CMA_PRES HKO_LAT HKO_LON HKO_CAT HKO_WIND HKO_PRES NEWDELHI_LAT NEWDELHI_LON NEWDELHI_GRADE NEWDELHI_WIND NEWDELHI_PRES NEWDELHI_CI NEWDELHI_DP NEWDELHI_POCI REUNION_LAT REUNION_LON REUNION_TYPE REUNION_WIND REUNION_PRES REUNION_TNUM REUNION_CI REUNION_RMW REUNION_R34_NE REUNION_R34_SE REUNION_R34_SW REUNION_R34_NW REUNION_R50_NE REUNION_R50_SE REUNION_R50_SW REUNION_R50_NW REUNION_R64_NE REUNION_R64_SE REUNION_R64_SW REUNION_R64_NW BOM_LAT BOM_LON BOM_TYPE BOM_WIND BOM_PRES BOM_TNUM BOM_CI BOM_RMW BOM_R34_NE BOM_R34_SE BOM_R34_SW BOM_R34_NW BOM_R50_NE BOM_R50_SE BOM_R50_SW BOM_R50_NW BOM_R64_NE BOM_R64_SE BOM_R64_SW BOM_R64_NW BOM_ROCI BOM_POCI BOM_EYE BOM_POS_METHOD BOM_PRES_METHOD NADI_LAT NADI_LON NADI_CAT NADI_WIND NADI_PRES WELLINGTON_LAT WELLINGTON_LON WELLINGTON_WIND WELLINGTON_PRES DS824_LAT DS824_LON DS824_STAGE DS824_WIND DS824_PRES TD9636_LAT TD9636_LON TD9636_STAGE TD9636_WIND TD9636_PRES TD9635_LAT TD9635_LON TD9635_WIND TD9635_PRES TD9635_ROCI NEUMANN_LAT NEUMANN_LON NEUMANN_CLASS NEUMANN_WIND NEUMANN_PRES MLC_LAT MLC_LON MLC_CLASS MLC_WIND MLC_PRES USA_GUST BOM_GUST BOM_GUST_PER REUNION_GUST REUNION_GUST_PER USA_SEAHGT USA_SEARAD_NE USA_SEARAD_SE USA_SEARAD_SW USA_SEARAD_NW STORM_SPEED STORM_DIR
1894335N24307 1894 54 NA NA NOT_NAMED 1894-11-30 12:00:00 TS 23.5000 -53.5000 main 1378 1378 _____________O -1 23.5000 -53.5000 TS 35 12 66
1894335N24307 1894 54 NA NA NOT_NAMED 1894-11-30 15:00:00 TS 23.7505 -52.8905 main 1448 1448 _____________P -1 23.7505 -52.8905 TS 37 12 66
1894335N24307 1894 54 NA NA NOT_NAMED 1894-11-30 18:00:00 TS 24.0000 -52.3000 main 1512 1512 _____________O -1 24.0000 -52.3000 TS 40 12 65
1894335N24307 1894 54 NA NA NOT_NAMED 1894-11-30 21:00:00 TS 24.2497 -51.7422 main 1577 1577 _____________P -1 24.2497 -51.7422 TS 40 11 64
1894335N24307 1894 54 NA NA NOT_NAMED 1894-12-01 00:00:00 TS 24.5000 -51.2000 main 1637 1637 _____________O -1 24.5000 -51.2000 TS 40 11 63
1894335N24307 1894 54 NA NA NOT_NAMED 1894-12-01 03:00:00 TS 24.7498 -50.6498 main 1701 1701 _____________P -1 24.7498 -50.6498 TS 40 11 63
1894335N24307 1894 54 NA NA NOT_NAMED 1894-12-01 06:00:00 TS 25.0000 -50.1000 main 1761 1761 _____________O -1 25.0000 -50.1000 TS 40 12 60
1894335N24307 1894 54 NA NA NOT_NAMED 1894-12-01 09:00:00 TS 25.3401 -49.5209 main 1829 1829 _____________P -1 25.3401 -49.5209 TS 42 11 63
1894335N24307 1894 54 NA NA NOT_NAMED 1894-12-01 12:00:00 TS 25.5000 -49.0000 main 1884 1884 _____________O -1 25.5000 -49.0000 TS 45 8 97
1894335N24307 1894 54 NA NA NOT_NAMED 1894-12-01 15:00:00 TS 25.2322 -48.6117 main 1910 1910 _____________P -1 25.2322 -48.6117 TS 45 9 138
1894335N24307 1894 54 NA NA NOT_NAMED 1894-12-01 18:00:00 TS 24.8000 -48.3000 main 1923 1923 _____________O -1 24.8000 -48.3000 TS 45 9 143
1894335N24307 1894 54 NA NA NOT_NAMED 1894-12-01 21:00:00 TS 24.4924 -47.9928 main 1942 1942 _____________P -1 24.4924 -47.9928 TS 45 8 138
1894335N24307 1894 54 NA NA NOT_NAMED 1894-12-02 00:00:00 TS 24.2000 -47.7000 main 1962 1962 _____________O -1 24.2000 -47.7000 TS 45 8 138
1894335N24307 1894 54 NA NA NOT_NAMED 1894-12-02 03:00:00 TS 23.8999 -47.4001 main 1982 1982 _____________P -1 23.8999 -47.4001 TS 45 8 138
1894335N24307 1894 54 NA NA NOT_NAMED 1894-12-02 06:00:00 TS 23.6000 -47.1000 main 2004 2004 _____________O -1 23.6000 -47.1000 TS 45 9 139
1894335N24307 1894 54 NA NA NOT_NAMED 1894-12-02 09:00:00 TS 23.2326 -46.7772 main 2024 2024 _____________P -1 23.2326 -46.7772 TS 45 8 137
1894335N24307 1894 54 NA NA NOT_NAMED 1894-12-02 12:00:00 TS 23.0000 -46.5000 main 2050 2050 _____________O -1 23.0000 -46.5000 TS 45 4 109
1894335N24307 1894 54 NA NA NOT_NAMED 1894-12-02 15:00:00 TS 23.0899 -46.3278 main 2072 2072 _____________P -1 23.0899 -46.3278 TS 45 4 43
1894335N24307 1894 54 NA NA NOT_NAMED 1894-12-02 18:00:00 TS 23.3000 -46.2000 main 2086 2086 _____________O -1 23.3000 -46.2000 TS 45 4 39
1894335N24307 1894 54 NA NA NOT_NAMED 1894-12-02 21:00:00 TS 23.4000 -46.0499 main 2108 2108 _____________P -1 23.4000 -46.0499 TS 45 3 54
1894335N24307 1894 54 NA NA NOT_NAMED 1894-12-03 00:00:00 TS 23.5000 -45.9000 main 2121 2121 _____________O -1 23.5000 -45.9000 TS 45 4 48
1894335N24307 1894 54 NA NA NOT_NAMED 1894-12-03 03:00:00 TS 23.6500 -45.7500 main 2133 2133 _____________P -1 23.6500 -45.7500 TS 45 4 42
1894335N24307 1894 54 NA NA NOT_NAMED 1894-12-03 06:00:00 TS 23.8000 -45.6000 main 2158 2158 _____________O -1 23.8000 -45.6000 TS 45 4 48
1894335N24307 1894 54 NA NA NOT_NAMED 1894-12-03 09:00:00 TS 23.9000 -45.4499 main 2180 2180 _____________P -1 23.9000 -45.4499 TS 45 3 54
1894335N24307 1894 54 NA NA NOT_NAMED 1894-12-03 12:00:00 TS 24.0000 -45.3000 main 2192 2192 _____________O -1 24.0000 -45.3000 TS 45 4 48
1894335N24307 1894 54 NA NA NOT_NAMED 1894-12-03 15:00:00 TS 24.1500 -45.1500 main 2205 2205 _____________P -1 24.1500 -45.1500 TS 45 4 42
1894335N24307 1894 54 NA NA NOT_NAMED 1894-12-03 18:00:00 TS 24.3000 -45.0000 main 2229 2229 _____________O -1 24.3000 -45.0000 TS 45 4 47
1894335N24307 1894 54 NA NA NOT_NAMED 1894-12-03 21:00:00 TS 24.4000 -44.8574 main 2242 2242 _____________P -1 24.4000 -44.8574 TS 45 3 54
1894335N24307 1894 54 NA NA NOT_NAMED 1894-12-04 00:00:00 TS 24.5000 -44.7000 main 2264 2264 _____________O -1 24.5000 -44.7000 TS 45 4 53
1894335N24307 1894 54 NA NA NOT_NAMED 1894-12-04 03:00:00 TS 24.6500 -44.5001 main 2289 2289 _____________P -1 24.6500 -44.5001 TS 45 5 50
1894335N24307 1894 54 NA NA NOT_NAMED 1894-12-04 06:00:00 TS 24.8000 -44.3000 main 2311 2311 _____________O -1 24.8000 -44.3000 TS 45 4 49
1894335N24307 1894 54 NA NA NOT_NAMED 1894-12-04 09:00:00 TS 24.9224 -44.1575 main 2324 2324 _____________P -1 24.9224 -44.1575 TS 47 3 54
1894335N24307 1894 54 NA NA NOT_NAMED 1894-12-04 12:00:00 TS 25.0000 -44.0000 main 2346 2346 _____________O -1 25.0000 -44.0000 TS 50 4 76
1894335N24307 1894 54 NA NA NOT_NAMED 1894-12-04 15:00:00 TS 25.0151 -43.7574 main 2365 2365 _____________P -1 25.0151 -43.7574 TS 50 5 90
1894335N24307 1894 54 NA NA NOT_NAMED 1894-12-04 18:00:00 TS 25.0000 -43.5000 main 2395 2395 _____________O -1 25.0000 -43.5000 TS 50 4 92
1894335N24307 1894 54 NA NA NOT_NAMED 1894-12-04 21:00:00 TS 24.9999 -43.3000 main 2414 2414 _____________P -1 24.9999 -43.3000 TS 50 4 90
1894335N24307 1894 54 NA NA NOT_NAMED 1894-12-05 00:00:00 TS 25.0000 -43.1000 main 2434 2434 _____________O -1 25.0000 -43.1000 TS 50 4 90
1894335N24307 1894 54 NA NA NOT_NAMED 1894-12-05 03:00:00 TS 25.0000 -42.8500 main 2449 2449 _____________P -1 25.0000 -42.8500 TS 50 5 90
1894335N24307 1894 54 NA NA NOT_NAMED 1894-12-05 06:00:00 TS 25.0000 -42.6000 main 2458 2458 _____________O -1 25.0000 -42.6000 TS 50 4 93
1894335N24307 1894 54 NA NA NOT_NAMED 1894-12-05 09:00:00 TS 24.9772 -42.4298 main 2468 2468 _____________P -1 24.9772 -42.4298 TS 50 4 90
1894335N24307 1894 54 NA NA NOT_NAMED 1894-12-05 12:00:00 TS 25.0000 -42.2000 main 2477 2477 _____________O -1 25.0000 -42.2000 TS 50 6 75
1894335N24307 1894 54 NA NA NOT_NAMED 1894-12-05 15:00:00 TS 25.1276 -41.7877 main 2501 2447 _____________P -1 25.1276 -41.7877 TS 50 9 70
1894335N24307 1894 54 NA NA NOT_NAMED 1894-12-05 18:00:00 TS 25.3000 -41.3000 main 2447 2406 _____________O -1 25.3000 -41.3000 TS 50 9 69
1894335N24307 1894 54 NA NA NOT_NAMED 1894-12-05 21:00:00 TS 25.4499 -40.8499 main 2396 2352 _____________P -1 25.4499 -40.8499 TS 50 9 70
1894335N24307 1894 54 NA NA NOT_NAMED 1894-12-06 00:00:00 TS 25.6000 -40.4000 main 2352 2310 _____________O -1 25.6000 -40.4000 TS 50 9 70
1894335N24307 1894 54 NA NA NOT_NAMED 1894-12-06 03:00:00 TS 25.7498 -39.9574 main 2310 2257 _____________P -1 25.7498 -39.9574 TS 50 9 70
1894335N24307 1894 54 NA NA NOT_NAMED 1894-12-06 06:00:00 TS 25.9000 -39.5000 main 2257 2215 _____________O -1 25.9000 -39.5000 TS 50 8 74
1894335N24307 1894 54 NA NA NOT_NAMED 1894-12-06 09:00:00 TS 25.9816 -39.0657 main 2215 2152 _____________P -1 25.9816 -39.0657 TS 50 9 72
1894335N24307 1894 54 NA NA NOT_NAMED 1894-12-06 12:00:00 TS 26.2000 -38.5000 main 2152 2064 _____________O -1 26.2000 -38.5000 TS 50 15 59
1894335N24307 1894 54 NA NA NOT_NAMED 1894-12-06 15:00:00 TS 26.7331 -37.6536 main 2064 1964 _____________P -1 26.7331 -37.6536 TS 52 20 53
1894335N24307 1894 54 NA NA NOT_NAMED 1894-12-06 18:00:00 TS 27.4000 -36.7000 main 1954 1868 _____________O -1 27.4000 -36.7000 TS 55 20 52
1894335N24307 1894 54 NA NA NOT_NAMED 1894-12-06 21:00:00 TS 27.9992 -35.8488 main 1859 1775 _____________P -1 27.9992 -35.8488 TS 57 19 51
1894335N24307 1894 54 NA NA NOT_NAMED 1894-12-07 00:00:00 TS 28.6000 -35.0000 main 1775 1685 _____________O -1 28.6000 -35.0000 TS 60 20 52
1894335N24307 1894 54 NA NA NOT_NAMED 1894-12-07 03:00:00 TS 29.1997 -34.0992 main 1685 1599 _____________P -1 29.1997 -34.0992 TS 60 20 53
1894335N24307 1894 54 NA NA NOT_NAMED 1894-12-07 06:00:00 TS 29.8000 -33.2000 main 1599 1534 _____________O -1 29.8000 -33.2000 TS 60 18 53
1894335N24307 1894 54 NA NA NOT_NAMED 1894-12-07 09:00:00 TS 30.2996 -32.4327 main 1525 1456 _____________P -1 30.2996 -32.4327 TS 62 19 51
1894335N24307 1894 54 NA NA NOT_NAMED 1894-12-07 12:00:00 TS 31.0000 -31.5000 main 1449 1343 _____________O -1 31.0000 -31.5000 HU 65 28 48
1894335N24307 1894 54 NA NA NOT_NAMED 1894-12-07 15:00:00 TS 32.1637 -30.0288 main 1337 1259 _____________P -1 32.1637 -30.0288 HU 65 36 45
1894335N24307 1894 54 NA NA NOT_NAMED 1894-12-07 18:00:00 TS 33.5000 -28.5000 main 1255 1224 _____________O -1 33.5000 -28.5000 HU 65 34 41
1894335N24307 1894 54 NA NA NOT_NAMED 1894-12-07 21:00:00 TS 34.7127 -27.3833 main 1230 1225 _____________P -1 34.7127 -27.3833 HU 65 29 34
1894335N24307 1894 54 NA NA NOT_NAMED 1894-12-08 00:00:00 TS 35.9000 -26.5000 main 1243 1243 _____________O -1 35.9000 -26.5000 HU 65 27 30
1894335N24307 1894 54 NA NA NOT_NAMED 1894-12-08 03:00:00 TS 37.0562 -25.7084 main 1284 1284 _____________P -1 37.0562 -25.7084 HU 65 26 27
1894335N24307 1894 54 NA NA NOT_NAMED 1894-12-08 06:00:00 ET 38.2000 -25.0000 main 1339 1274 _____________O -1 38.2000 -25.0000 EX 65 25 27
1894335N24307 1894 54 NA NA NOT_NAMED 1894-12-08 09:00:00 ET 39.2889 -24.2805 main 1274 1206 _____________P -1 39.2889 -24.2805 EX 62 26 27
1894335N24307 1894 54 NA NA NOT_NAMED 1894-12-08 12:00:00 ET 40.5000 -23.5000 main 1203 1092 _____________O -1 40.5000 -23.5000 EX 60 30 26
1894335N24307 1894 54 NA NA NOT_NAMED 1894-12-08 15:00:00 ET 41.9893 -22.5719 main 1090 993 _____________P -1 41.9893 -22.5719 EX 57 34 26
1894335N24307 1894 54 NA NA NOT_NAMED 1894-12-08 18:00:00 ET 43.6000 -21.5000 main 985 905 _____________O -1 43.6000 -21.5000 EX 55 36 28
1894335N24307 1894 54 NA NA NOT_NAMED 1894-12-08 21:00:00 ET 45.1367 -20.2212 main 897 849 _____________P -1 45.1367 -20.2212 EX 55 36 30
1894335N24307 1894 54 NA NA NOT_NAMED 1894-12-09 00:00:00 ET 46.7000 -19.0000 main 836 676 _____________O -1 46.7000 -19.0000 EX 55 35 24
1894335N24307 1894 54 NA NA NOT_NAMED 1894-12-09 03:00:00 ET 48.3538 -18.1775 main 669 532 _____________P -1 48.3538 -18.1775 EX 52 35 18
1894335N24307 1894 54 NA NA NOT_NAMED 1894-12-09 06:00:00 ET 50.0000 -17.4000 main 527 408 _____________O -1 50.0000 -17.4000 EX 50 34 20
1894335N24307 1894 54 NA NA NOT_NAMED 1894-12-09 09:00:00 ET 51.5397 -16.3257 main 402 322 _____________P -1 51.5397 -16.3257 EX 50 33 26
1894335N24307 1894 54 NA NA NOT_NAMED 1894-12-09 12:00:00 ET 53.0000 -15.0000 main 318 _____________O -1 53.0000 -15.0000 EX 50 33 29

About IBTrACS Database

This database is a web-friendly format of International Best Track Archive for Climate Stewardship (IBTrACS), a global best track data archive curated by NOAA dating back to 1842.

Updated: 2021-10-27